Time;durP1;ratioP1;P1;durP2;ratioP2;P2;SDS_P1;SDS_P2;PMS_P1;PMS_P2;Temp;Humidity;BMP_temperature;BMP_pressure;BME280_temperature;BME280_humidity;BME280_pressure;Samples;Min_cycle;Max_cycle;Signal;HPM_P1;HPM_P2
2023/11/05 00:00:58;;;;;;;12.35;5.85;;;;;;;8.38;100.00;98189.75;6184363;28;20481;-75
2023/11/05 00:03:59;;;;;;;12.77;5.32;;;;;;;8.43;100.00;98181.59;6173635;28;20054;-75
2023/11/05 00:07:00;;;;;;;9.90;6.20;;;;;;;8.50;100.00;98187.94;6183424;28;20046;-75
2023/11/05 00:10:01;;;;;;;10.23;5.68;;;;;;;8.57;100.00;98172.69;6182616;28;20477;-73
2023/11/05 00:13:02;;;;;;;10.25;6.22;;;;;;;8.58;100.00;98180.34;6193849;28;20050;-72
2023/11/05 00:16:04;;;;;;;11.52;6.00;;;;;;;8.58;100.00;98175.13;6195421;28;20061;-72
2023/11/05 00:19:05;;;;;;;10.35;5.57;;;;;;;8.40;100.00;98182.66;6184921;28;20486;-72
2023/11/05 00:22:06;;;;;;;12.48;5.78;;;;;;;8.40;100.00;98190.47;6186797;28;20046;-76
2023/11/05 00:25:08;;;;;;;13.93;6.93;;;;;;;8.25;100.00;98178.69;6196007;28;20054;-75
2023/11/05 00:28:09;;;;;;;12.27;6.40;;;;;;;8.20;100.00;98193.84;6195183;28;20623;-75
2023/11/05 00:31:10;;;;;;;10.65;6.20;;;;;;;8.28;100.00;98199.25;6172811;28;20061;-75
2023/11/05 00:34:10;;;;;;;8.50;5.13;;;;;;;8.18;100.00;98195.75;6171799;28;20137;-75
2023/11/05 00:37:11;;;;;;;11.75;6.22;;;;;;;8.24;100.00;98198.66;6173559;28;20058;-73
2023/11/05 00:40:12;;;;;;;11.68;5.53;;;;;;;8.20;100.00;98188.66;6190659;28;20072;-75
2023/11/05 00:43:13;;;;;;;10.05;5.57;;;;;;;8.28;100.00;98192.28;6201682;28;20061;-75
2023/11/05 00:46:17;;;;;;;9.88;6.45;;;;;;;8.26;100.00;98193.34;6185853;28;20063;-72
2023/11/05 00:49:18;;;;;;;11.68;6.32;;;;;;;8.33;100.00;98186.69;6177308;28;20062;-73
2023/11/05 00:52:19;;;;;;;8.45;5.72;;;;;;;8.30;100.00;98186.09;6200212;28;20054;-72
2023/11/05 00:55:20;;;;;;;7.53;4.38;;;;;;;8.27;100.00;98185.41;6198803;28;20119;-72
2023/11/05 00:58:20;;;;;;;7.45;5.07;;;;;;;8.41;100.00;98166.13;6201183;28;20106;-75
2023/11/05 01:01:23;;;;;;;11.85;6.20;;;;;;;8.38;100.00;98174.16;6201286;28;20116;-75
2023/11/05 01:04:27;;;;;;;11.23;5.20;;;;;;;8.39;100.00;98174.97;6200073;28;20058;-75
2023/11/05 01:07:28;;;;;;;13.63;5.63;;;;;;;8.43;100.00;98159.03;6200175;28;20061;-73
2023/11/05 01:10:29;;;;;;;8.60;5.05;;;;;;;8.52;100.00;98164.44;6177671;28;20047;-72
2023/11/05 01:13:30;;;;;;;10.02;5.57;;;;;;;8.53;100.00;98156.50;6176399;28;20083;-72
2023/11/05 01:16:30;;;;;;;11.93;5.53;;;;;;;8.57;100.00;98144.09;6176532;28;20065;-73
2023/11/05 01:19:34;;;;;;;11.98;5.40;;;;;;;8.63;100.00;98134.00;6186948;28;20061;-73
2023/11/05 01:22:35;;;;;;;7.90;4.70;;;;;;;8.59;100.00;98135.19;6200590;28;20124;-73
2023/11/05 01:25:36;;;;;;;17.33;5.88;;;;;;;8.69;100.00;98132.66;6198758;28;20521;-73
2023/11/05 01:28:38;;;;;;;8.57;4.88;;;;;;;8.81;100.00;98131.63;6200917;28;20061;-76
2023/11/05 01:31:39;;;;;;;6.72;4.03;;;;;;;8.66;100.00;98125.94;6200529;28;20058;-76
2023/11/05 01:34:42;;;;;;;10.45;3.90;;;;;;;8.84;100.00;98117.53;6199212;28;20053;-77
2023/11/05 01:37:44;;;;;;;7.43;5.07;;;;;;;8.98;100.00;98116.38;6198316;28;20500;-76
2023/11/05 01:40:45;;;;;;;7.70;5.00;;;;;;;9.02;100.00;98108.19;6198668;28;20133;-76
2023/11/05 01:43:46;;;;;;;10.82;5.35;;;;;;;9.00;100.00;98098.88;6198993;28;20137;-76
2023/11/05 01:46:48;;;;;;;10.68;5.40;;;;;;;9.04;100.00;98103.66;6198335;28;20069;-76
2023/11/05 01:49:49;;;;;;;8.30;4.38;;;;;;;9.06;100.00;98106.16;6198213;28;20182;-75
2023/11/05 01:53:00;;;;;;;7.65;4.28;;;;;;;9.18;100.00;98097.28;6176379;28;20066;-77
2023/11/05 01:56:01;;;;;;;6.85;4.07;;;;;;;9.21;100.00;98098.78;6200122;28;20059;-75
2023/11/05 01:59:03;;;;;;;8.10;4.82;;;;;;;9.42;100.00;98101.31;6199460;28;20077;-73
2023/11/05 02:02:06;;;;;;;10.25;4.85;;;;;;;9.39;100.00;98084.19;6217946;28;20062;-75
2023/11/05 02:05:08;;;;;;;11.38;4.82;;;;;;;9.51;100.00;98095.28;6173370;28;20051;-75
2023/11/05 02:08:09;;;;;;;9.38;4.80;;;;;;;9.37;100.00;98087.84;6173200;28;20054;-75
2023/11/05 02:11:10;;;;;;;10.60;4.93;;;;;;;9.58;100.00;98087.78;6188051;28;20085;-75
2023/11/05 02:14:14;;;;;;;17.05;6.30;;;;;;;9.50;100.00;98085.84;6195975;28;20113;-72
2023/11/05 02:17:15;;;;;;;9.98;5.28;;;;;;;9.53;100.00;98079.53;6198874;28;20051;-73
2023/11/05 02:20:16;;;;;;;14.55;5.25;;;;;;;9.57;100.00;98086.09;6197943;28;20054;-73
2023/11/05 02:23:18;;;;;;;10.27;4.90;;;;;;;9.52;100.00;98089.13;6196114;28;20766;-73
2023/11/05 02:26:19;;;;;;;11.33;5.67;;;;;;;9.63;100.00;98078.56;6199274;28;20053;-73
2023/11/05 02:29:19;;;;;;;8.10;5.13;;;;;;;9.65;100.00;98078.44;6197842;28;20046;-73
2023/11/05 02:32:21;;;;;;;14.45;6.10;;;;;;;9.65;100.00;98074.06;6198399;28;20061;-72
2023/11/05 02:35:22;;;;;;;8.00;4.63;;;;;;;9.69;100.00;98080.63;6178677;28;20055;-76
2023/11/05 02:38:23;;;;;;;10.95;5.93;;;;;;;9.73;100.00;98083.78;6173914;28;20054;-76
2023/11/05 02:41:24;;;;;;;10.50;5.40;;;;;;;9.84;100.00;98085.44;6195886;28;20065;-73
2023/11/05 02:44:25;;;;;;;11.10;5.22;;;;;;;9.85;100.00;98087.91;6190129;28;20050;-73
2023/11/05 02:47:26;;;;;;;14.27;5.90;;;;;;;9.95;100.00;98080.09;6160006;28;20437;-73
2023/11/05 02:50:29;;;;;;;15.30;6.28;;;;;;;9.96;100.00;98088.75;6189559;28;20077;-73
2023/11/05 02:53:30;;;;;;;13.27;5.75;;;;;;;9.89;100.00;98097.09;6195992;28;20389;-77
2023/11/05 02:56:30;;;;;;;19.67;6.15;;;;;;;9.87;100.00;98082.56;6188633;28;20114;-77
2023/11/05 02:59:31;;;;;;;10.75;6.20;;;;;;;10.01;100.00;98092.59;6173838;28;20055;-77
2023/11/05 03:02:33;;;;;;;11.20;5.30;;;;;;;9.96;100.00;98091.34;6173254;28;20109;-77
2023/11/05 03:05:34;;;;;;;13.93;6.80;;;;;;;10.01;100.00;98099.59;6194604;28;20141;-78
2023/11/05 03:08:37;;;;;;;11.93;5.63;;;;;;;10.00;100.00;98118.78;6176128;28;20146;-73
2023/11/05 03:11:38;;;;;;;14.40;5.18;;;;;;;9.88;100.00;98120.69;6217094;28;20054;-77
2023/11/05 03:14:42;;;;;;;15.40;6.05;;;;;;;10.08;100.00;98134.53;6178192;28;20054;-77
2023/11/05 03:17:45;;;;;;;12.23;6.07;;;;;;;10.12;100.00;98128.09;6167790;28;20051;-77
2023/11/05 03:20:45;;;;;;;14.10;6.38;;;;;;;10.11;100.00;98144.72;6179985;28;20054;-77
2023/11/05 03:23:46;;;;;;;9.38;5.57;;;;;;;10.19;100.00;98131.81;6193729;28;20077;-74
2023/11/05 03:26:49;;;;;;;10.70;6.13;;;;;;;10.11;100.00;98126.47;6197235;28;20145;-74
2023/11/05 03:29:50;;;;;;;12.25;5.90;;;;;;;10.07;100.00;98119.88;6182286;28;20401;-76
2023/11/05 03:32:54;;;;;;;11.75;6.35;;;;;;;10.11;100.00;98109.97;6174134;28;20050;-77
2023/11/05 03:35:57;;;;;;;13.23;6.05;;;;;;;10.14;100.00;98117.53;6173466;28;20058;-74
2023/11/05 03:38:57;;;;;;;15.25;6.78;;;;;;;10.15;100.00;98100.94;6178463;28;20485;-77
2023/11/05 03:41:58;;;;;;;13.23;6.93;;;;;;;10.31;100.00;98100.41;6194366;28;20101;-76
2023/11/05 03:44:59;;;;;;;15.57;6.82;;;;;;;10.32;100.00;98100.28;6183970;28;20133;-77
2023/11/05 03:48:00;;;;;;;12.55;5.90;;;;;;;10.30;100.00;98093.56;6174956;28;20054;-77
2023/11/05 03:51:01;;;;;;;12.45;6.13;;;;;;;10.41;100.00;98085.56;6185495;28;20055;-74
2023/11/05 03:54:02;;;;;;;9.05;5.85;;;;;;;10.40;100.00;98082.16;6195103;28;20046;-74
2023/11/05 03:57:03;;;;;;;13.60;6.82;;;;;;;10.35;100.00;98079.13;6190130;28;20055;-74
2023/11/05 04:00:09;;;;;;;14.23;6.25;;;;;;;10.27;100.00;98069.38;6181351;28;20061;-77
2023/11/05 04:03:10;;;;;;;19.55;5.55;;;;;;;10.32;100.00;98061.16;6184647;28;20062;-74
2023/11/05 04:06:16;;;;;;;11.98;5.70;;;;;;;10.28;100.00;98065.81;6187046;28;20061;-77
2023/11/05 04:09:18;;;;;;;12.40;6.20;;;;;;;10.20;100.00;98072.69;6189973;28;20055;-77
2023/11/05 04:12:18;;;;;;;12.73;5.35;;;;;;;10.18;100.00;98064.19;6173096;28;20050;-77
2023/11/05 04:15:19;;;;;;;10.88;6.07;;;;;;;10.34;100.00;98061.03;6178158;28;20420;-77
2023/11/05 04:18:21;;;;;;;9.00;5.68;;;;;;;10.33;100.00;98054.97;6191579;28;20062;-76
2023/11/05 04:21:21;;;;;;;11.38;5.65;;;;;;;10.25;100.00;98055.66;6186148;28;20062;-74
2023/11/05 04:24:22;;;;;;;8.75;5.25;;;;;;;10.23;100.00;98052.38;6187594;28;20059;-74
2023/11/05 04:27:23;;;;;;;9.60;4.97;;;;;;;10.38;100.00;98037.13;6190475;28;20109;-74
2023/11/05 04:30:24;;;;;;;13.93;5.55;;;;;;;10.40;100.00;98027.41;6189600;28;20129;-74
2023/11/05 04:33:28;;;;;;;11.70;5.30;;;;;;;10.45;100.00;98030.38;6184528;28;20534;-74
2023/11/05 04:36:29;;;;;;;12.10;5.47;;;;;;;10.44;100.00;98020.94;6196510;28;20093;-75
2023/11/05 04:39:30;;;;;;;10.25;5.25;;;;;;;10.35;100.00;98028.78;6186744;28;20440;-74
2023/11/05 04:42:31;;;;;;;12.45;5.90;;;;;;;10.40;100.00;98018.75;6191440;28;20050;-74
2023/11/05 04:45:34;;;;;;;8.70;4.75;;;;;;;10.35;100.00;98026.97;6193679;28;20440;-75
2023/11/05 04:48:34;;;;;;;;;;;;;;;10.32;100.00;98018.66;6192168;28;20051;-75
2023/11/05 04:51:40;;;;;;;9.63;4.38;;;;;;;10.39;100.00;98012.69;6159842;28;19930;-75
2023/11/05 04:54:41;;;;;;;10.35;4.75;;;;;;;10.32;100.00;98013.44;6175905;28;20742;-74
2023/11/05 04:57:41;;;;;;;8.20;4.38;;;;;;;10.31;100.00;98004.78;6184169;28;20058;-74
2023/11/05 05:00:42;;;;;;;13.80;5.10;;;;;;;10.25;100.00;98011.34;6172957;28;20458;-74
2023/11/05 05:03:45;;;;;;;5.78;4.07;;;;;;;10.31;100.00;98007.38;6196160;28;20478;-77
2023/11/05 05:06:49;;;;;;;16.45;5.55;;;;;;;10.31;100.00;98002.16;6157859;28;20474;-74
2023/11/05 05:09:52;;;;;;;11.00;4.75;;;;;;;10.36;100.00;97992.16;6183516;28;20049;-74
2023/11/05 05:12:56;;;;;;;7.82;4.30;;;;;;;10.43;100.00;97995.81;6190763;28;20046;-74
2023/11/05 05:15:57;;;;;;;8.77;5.00;;;;;;;10.45;100.00;97980.84;6202435;28;20468;-74
2023/11/05 05:18:58;;;;;;;7.35;4.55;;;;;;;10.35;100.00;97968.81;6177922;28;20072;-77
2023/11/05 05:21:59;;;;;;;7.00;3.97;;;;;;;10.43;100.00;97954.09;6185605;28;20050;-77
2023/11/05 05:25:00;;;;;;;8.48;4.25;;;;;;;10.38;100.00;97963.34;6170883;28;20494;-78
2023/11/05 05:28:01;;;;;;;8.25;3.88;;;;;;;10.39;100.00;97946.72;6181913;28;20061;-78
2023/11/05 05:31:02;;;;;;;6.30;3.92;;;;;;;10.58;100.00;97928.34;6178061;28;20046;-74
2023/11/05 05:34:03;;;;;;;6.82;4.40;;;;;;;10.70;100.00;97921.16;6192444;28;20414;-74
2023/11/05 05:37:05;;;;;;;5.85;3.58;;;;;;;10.76;100.00;97917.97;6179973;28;20133;-77
2023/11/05 05:40:06;;;;;;;6.70;3.55;;;;;;;10.87;100.00;97916.94;6194292;28;20061;-78
2023/11/05 05:43:08;;;;;;;11.30;3.60;;;;;;;10.76;100.00;97893.69;6199386;28;20058;-78
2023/11/05 05:46:14;;;;;;;7.93;3.58;;;;;;;10.82;100.00;97890.47;6174646;28;20063;-78
2023/11/05 05:49:15;;;;;;;3.42;2.50;;;;;;;10.74;100.00;97885.19;6195609;28;20050;-76
2023/11/05 05:52:16;;;;;;;4.65;2.83;;;;;;;10.84;100.00;97867.66;6199412;28;20105;-76
2023/11/05 05:55:17;;;;;;;3.95;2.63;;;;;;;10.85;100.00;97880.56;6198555;28;20101;-74
2023/11/05 05:58:21;;;;;;;3.90;2.75;;;;;;;10.83;100.00;97874.69;6197042;28;20054;-75
2023/11/05 06:01:23;;;;;;;10.63;2.38;;;;;;;10.99;100.00;97884.44;6189315;28;20057;-74
2023/11/05 06:04:23;;;;;;;3.05;2.28;;;;;;;11.06;100.00;97885.50;6197270;28;20069;-77
2023/11/05 06:07:31;;;;;;;4.65;2.72;;;;;;;11.18;100.00;97875.66;6177317;28;20074;-78
2023/11/05 06:10:32;;;;;;;3.35;1.92;;;;;;;11.18;100.00;97870.44;6187540;28;20078;-78
2023/11/05 06:13:32;;;;;;;4.97;2.10;;;;;;;11.39;100.00;97877.13;6168349;28;20146;-78
2023/11/05 06:16:33;;;;;;;3.45;2.13;;;;;;;11.38;100.00;97884.13;6192184;28;20055;-77
2023/11/05 06:19:36;;;;;;;7.28;2.80;;;;;;;11.53;100.00;97891.41;6152770;28;20047;-77
2023/11/05 06:22:37;;;;;;;12.02;2.58;;;;;;;11.59;98.50;97891.63;6212698;28;20066;-77
2023/11/05 06:25:38;;;;;;;7.18;2.35;;;;;;;11.53;99.74;97886.19;6181391;28;20054;-77
2023/11/05 06:28:39;;;;;;;2.75;1.90;;;;;;;11.45;99.41;97881.75;6165300;28;20058;-74
2023/11/05 06:31:40;;;;;;;2.17;1.90;;;;;;;11.53;98.44;97873.97;6166862;28;20047;-74
2023/11/05 06:34:41;;;;;;;2.63;1.90;;;;;;;11.63;98.10;97879.91;6164367;28;20485;-77
2023/11/05 06:37:42;;;;;;;5.90;2.22;;;;;;;11.52;97.30;97867.09;6172580;28;20138;-77
2023/11/05 06:40:45;;;;;;;2.17;1.52;;;;;;;11.63;96.25;97866.84;6165412;28;21305;-77
2023/11/05 06:43:46;;;;;;;2.83;1.67;;;;;;;11.66;95.59;97865.72;6167471;28;20047;-78
2023/11/05 06:46:47;;;;;;;3.92;2.20;;;;;;;11.66;95.76;97863.91;6171107;28;20058;-77
2023/11/05 06:49:48;;;;;;;7.10;2.00;;;;;;;11.70;95.86;97873.09;6182795;28;20045;-77
2023/11/05 06:52:54;;;;;;;1.92;1.52;;;;;;;11.88;94.34;97878.28;6178363;28;20055;-73
2023/11/05 06:55:54;;;;;;;5.05;1.80;;;;;;;11.72;94.09;97862.47;6175136;28;20050;-73
2023/11/05 06:58:55;;;;;;;4.57;1.83;;;;;;;11.72;94.00;97857.25;6161336;28;20070;-73
2023/11/05 07:01:56;;;;;;;2.50;1.42;;;;;;;11.73;93.96;97856.28;6190872;28;20050;-73
2023/11/05 07:04:58;;;;;;;4.10;1.70;;;;;;;11.76;93.75;97847.31;6173276;28;20050;-73
2023/11/05 07:07:59;;;;;;;4.53;1.70;;;;;;;11.78;93.55;97843.56;6163596;28;20576;-73
2023/11/05 07:11:01;;;;;;;5.05;1.60;;;;;;;11.73;92.79;97832.75;6159652;28;20051;-74
2023/11/05 07:14:01;;;;;;;2.80;1.40;;;;;;;11.82;92.38;97834.47;6179466;28;20082;-73
2023/11/05 07:17:04;;;;;;;7.60;1.85;;;;;;;11.76;93.40;97835.06;6169414;28;20055;-73
2023/11/05 07:20:12;;;;;;;2.08;1.33;;;;;;;11.52;94.20;97824.47;6174202;28;20051;-73
2023/11/05 07:23:14;;;;;;;5.00;2.10;;;;;;;11.58;94.29;97842.16;6178358;28;20050;-73
2023/11/05 07:26:15;;;;;;;57.60;19.55;;;;;;;11.77;94.28;97836.69;6189715;28;20053;-74
2023/11/05 07:29:16;;;;;;;114.35;39.28;;;;;;;11.66;94.87;97814.28;6186285;28;20121;-73
2023/11/05 07:32:17;;;;;;;23.83;12.52;;;;;;;11.58;95.15;97792.53;6177142;28;20135;-75
2023/11/05 07:35:18;;;;;;;19.98;9.32;;;;;;;11.53;96.22;97798.22;6191553;28;20069;-73
2023/11/05 07:38:21;;;;;;;70.60;25.48;;;;;;;11.60;97.13;97799.22;6194819;28;20133;-74
2023/11/05 07:41:22;;;;;;;39.15;20.90;;;;;;;11.32;98.16;97806.41;6177014;28;20050;-74
2023/11/05 07:44:25;;;;;;;18.13;10.55;;;;;;;11.37;98.45;97795.50;6170376;28;20062;-75
2023/11/05 07:47:27;;;;;;;11.13;7.30;;;;;;;11.37;98.69;97796.31;6184485;28;20142;-75
2023/11/05 07:50:28;;;;;;;4.65;3.30;;;;;;;11.42;99.44;97782.81;6194055;28;20050;-75
2023/11/05 07:53:29;;;;;;;4.70;2.55;;;;;;;11.33;100.00;97762.84;6187938;28;20180;-75
2023/11/05 07:56:30;;;;;;;5.82;2.65;;;;;;;11.44;100.00;97768.63;6194582;28;20054;-76
2023/11/05 07:59:31;;;;;;;3.85;1.73;;;;;;;11.61;100.00;97755.63;6194448;28;20755;-75
2023/11/05 08:02:33;;;;;;;3.13;1.83;;;;;;;11.63;100.00;97735.41;6172618;28;20192;-75
2023/11/05 08:05:34;;;;;;;2.33;1.70;;;;;;;11.63;100.00;97725.81;6177722;28;20141;-75
2023/11/05 08:08:37;;;;;;;3.53;1.60;;;;;;;11.77;100.00;97711.28;6158230;28;20057;-75
2023/11/05 08:11:37;;;;;;;3.50;1.75;;;;;;;11.73;99.89;97714.38;6212407;28;20086;-75
2023/11/05 08:14:38;;;;;;;3.53;1.70;;;;;;;11.60;99.96;97715.66;6195340;28;20057;-75
2023/11/05 08:17:40;;;;;;;13.77;4.43;;;;;;;11.60;99.46;97707.00;6196014;28;20054;-75
2023/11/05 08:20:41;;;;;;;36.03;13.63;;;;;;;11.75;100.00;97699.38;6194476;28;20052;-75
2023/11/05 08:23:41;;;;;;;33.78;13.98;;;;;;;11.75;100.00;97687.13;6190465;28;20047;-75
2023/11/05 08:26:44;;;;;;;16.92;6.53;;;;;;;11.62;100.00;97679.75;6170136;28;20102;-75
2023/11/05 08:29:44;;;;;;;14.73;4.97;;;;;;;11.55;100.00;97678.75;6166906;28;20089;-75
2023/11/05 08:32:45;;;;;;;3.47;2.38;;;;;;;11.53;100.00;97661.59;6171847;28;20639;-75
2023/11/05 08:35:51;;;;;;;3.88;1.75;;;;;;;11.49;100.00;97641.03;6165345;28;20434;-75
2023/11/05 08:38:54;;;;;;;3.97;2.15;;;;;;;11.52;100.00;97645.09;6151910;28;20047;-76
2023/11/05 08:41:55;;;;;;;2.97;2.22;;;;;;;11.47;100.00;97642.97;6175467;28;20125;-75
2023/11/05 08:44:56;;;;;;;5.97;2.97;;;;;;;11.52;100.00;97642.50;6181274;28;20412;-77
2023/11/05 08:47:57;;;;;;;3.38;2.35;;;;;;;11.45;100.00;97642.31;6184610;28;20054;-78
2023/11/05 08:50:57;;;;;;;7.65;3.15;;;;;;;11.59;100.00;97633.06;6182372;28;20049;-78
2023/11/05 08:53:58;;;;;;;2.63;1.85;;;;;;;11.52;100.00;97645.09;6185280;28;20072;-78
2023/11/05 08:57:00;;;;;;;3.90;2.00;;;;;;;11.56;100.00;97653.44;6182640;28;20089;-78
2023/11/05 09:00:01;;;;;;;3.47;2.15;;;;;;;11.40;100.00;97655.00;6183430;28;20438;-77
2023/11/05 09:03:02;;;;;;;9.60;4.45;;;;;;;11.53;100.00;97656.38;6184324;28;20495;-77
2023/11/05 09:06:03;;;;;;;22.58;9.00;;;;;;;11.61;100.00;97644.16;6184275;28;20046;-78
2023/11/05 09:09:07;;;;;;;35.40;11.95;;;;;;;11.66;100.00;97654.94;6185035;28;20072;-78
2023/11/05 09:12:09;;;;;;;36.10;12.40;;;;;;;11.70;100.00;97645.00;6185188;28;20058;-78
2023/11/05 09:15:13;;;;;;;15.82;6.47;;;;;;;11.53;100.00;97641.53;6183717;28;20078;-77
2023/11/05 09:18:14;;;;;;;18.13;6.55;;;;;;;11.66;100.00;97628.81;6197074;28;20512;-79
2023/11/05 09:21:14;;;;;;;13.95;5.30;;;;;;;11.52;100.00;97626.00;6176429;28;20289;-78
2023/11/05 09:24:15;;;;;;;7.30;2.75;;;;;;;11.48;100.00;97630.72;6198122;28;20054;-78
2023/11/05 09:27:16;;;;;;;8.63;3.08;;;;;;;11.38;100.00;97614.38;6175881;28;20054;-78
2023/11/05 09:30:25;;;;;;;4.70;2.17;;;;;;;11.42;100.00;97623.53;6173602;28;20490;-78
2023/11/05 09:33:26;;;;;;;2.47;1.00;;;;;;;11.23;100.00;97596.69;6182906;28;20058;-78
2023/11/05 09:36:29;;;;;;;2.00;1.00;;;;;;;11.45;100.00;97597.13;6199469;28;20485;-79
2023/11/05 09:39:30;;;;;;;2.17;1.50;;;;;;;11.43;100.00;97578.19;6194576;28;20600;-78
2023/11/05 09:42:31;;;;;;;6.28;1.45;;;;;;;11.39;100.00;97555.97;6197680;28;20046;-78
2023/11/05 09:45:35;;;;;;;1.52;0.88;;;;;;;11.22;100.00;97562.91;6192924;28;20121;-79
2023/11/05 09:48:37;;;;;;;3.20;1.10;;;;;;;11.22;100.00;97557.69;6191115;28;20646;-79
2023/11/05 09:51:38;;;;;;;3.13;1.30;;;;;;;11.23;100.00;97548.91;6173837;28;20046;-79
2023/11/05 09:54:43;;;;;;;7.97;3.33;;;;;;;11.26;100.00;97546.81;6172668;28;20069;-79
2023/11/05 09:57:44;;;;;;;5.15;2.80;;;;;;;11.34;100.00;97550.41;6172057;28;20090;-79
2023/11/05 10:00:46;;;;;;;4.55;2.17;;;;;;;11.25;100.00;97521.66;6172691;28;20053;-79
2023/11/05 10:03:46;;;;;;;10.18;4.75;;;;;;;11.24;100.00;97527.88;6172769;28;20043;-79
2023/11/05 10:06:51;;;;;;;10.57;4.07;;;;;;;11.06;100.00;97503.69;6174111;28;20066;-79
2023/11/05 10:09:52;;;;;;;9.27;4.20;;;;;;;11.16;100.00;97495.69;6171700;28;20059;-79
2023/11/05 10:12:53;;;;;;;2.90;2.20;;;;;;;11.19;100.00;97490.97;6172773;28;20051;-79
2023/11/05 10:15:59;;;;;;;3.67;1.88;;;;;;;11.27;100.00;97496.22;6173685;28;20073;-79
2023/11/05 10:19:00;;;;;;;5.75;2.20;;;;;;;11.22;100.00;97490.69;6173311;28;20100;-79
2023/11/05 10:22:01;;;;;;;5.38;2.20;;;;;;;11.28;100.00;97474.38;6173642;28;20395;-79
2023/11/05 10:25:06;;;;;;;3.60;2.03;;;;;;;11.32;100.00;97464.41;6173408;28;20047;-79
2023/11/05 10:28:11;;;;;;;1.48;1.13;;;;;;;11.32;100.00;97468.81;6172511;28;20081;-79
2023/11/05 10:31:12;;;;;;;3.55;1.40;;;;;;;11.21;100.00;97462.13;6171939;28;20053;-79
2023/11/05 10:34:15;;;;;;;2.40;1.48;;;;;;;11.19;100.00;97467.50;6172138;28;20065;-79
2023/11/05 10:37:16;;;;;;;3.88;1.65;;;;;;;11.35;100.00;97453.66;6173193;28;20149;-79
2023/11/05 10:40:17;;;;;;;2.05;1.27;;;;;;;11.43;100.00;97445.03;6172912;28;20077;-75
2023/11/05 10:43:18;;;;;;;1.42;1.00;;;;;;;11.55;100.00;97448.94;6171649;28;20425;-74
2023/11/05 10:46:20;;;;;;;3.63;1.20;;;;;;;11.37;100.00;97449.09;6171711;28;20109;-75
2023/11/05 10:49:23;;;;;;;3.78;1.52;;;;;;;11.46;100.00;97432.44;6171527;28;20101;-75
2023/11/05 10:52:25;;;;;;;;;;;;;;;11.40;100.00;97432.28;6173134;28;20047;-79
2023/11/05 10:55:32;;;;;;;6.47;3.72;;;;;;;11.53;100.00;97418.72;6172929;28;19922;-79
2023/11/05 10:58:40;;;;;;;2.92;1.40;;;;;;;11.49;100.00;97421.69;6171281;28;20066;-79
2023/11/05 11:01:41;;;;;;;3.08;1.58;;;;;;;11.42;100.00;97397.19;6171445;28;20387;-79
2023/11/05 11:04:43;;;;;;;3.30;2.22;;;;;;;11.59;100.00;97376.28;6171543;28;20047;-79
2023/11/05 11:07:44;;;;;;;1.90;1.52;;;;;;;11.73;100.00;97359.13;6171363;28;20516;-79
2023/11/05 11:10:49;;;;;;;4.68;1.13;;;;;;;11.67;100.00;97381.50;6172155;28;20043;-79
2023/11/05 11:13:57;;;;;;;1.85;1.20;;;;;;;11.63;100.00;97367.13;6172550;28;20089;-79
2023/11/05 11:17:12;;;;;;;1.88;1.00;;;;;;;11.76;100.00;97380.53;6171055;28;20057;-79
2023/11/05 11:20:16;;;;;;;1.02;0.65;;;;;;;11.79;100.00;97395.84;6172113;28;20557;-79
2023/11/05 11:23:17;;;;;;;1.48;0.82;;;;;;;11.84;100.00;97400.56;6172078;28;20055;-79
2023/11/05 11:26:24;;;;;;;3.90;0.82;;;;;;;11.91;100.00;97398.97;6172139;28;20051;-79
2023/11/05 11:29:28;;;;;;;2.13;1.00;;;;;;;11.79;100.00;97410.72;6171901;28;20133;-79
2023/11/05 11:32:33;;;;;;;3.53;1.10;;;;;;;11.73;100.00;97404.34;6170928;28;20093;-79
2023/11/05 11:35:37;;;;;;;1.02;0.95;;;;;;;11.95;100.00;97410.72;6171947;28;20476;-79
2023/11/05 11:38:38;;;;;;;1.00;0.90;;;;;;;12.02;100.00;97435.19;6172017;28;20489;-79
2023/11/05 11:41:39;;;;;;;2.10;1.05;;;;;;;12.05;100.00;97436.66;6170363;28;20051;-79
2023/11/05 11:44:41;;;;;;;4.57;1.42;;;;;;;12.06;100.00;97430.44;6186913;28;20130;-75
2023/11/05 11:47:42;;;;;;;1.77;1.27;;;;;;;12.17;100.00;97456.25;6170238;28;20055;-75
2023/11/05 11:51:11;;;;;;;5.40;1.13;;;;;;;12.13;100.00;97454.13;6170161;28;20105;-75
2023/11/05 11:54:12;;;;;;;3.38;1.00;;;;;;;12.13;100.00;97480.25;6169618;28;20174;-75
2023/11/05 11:57:16;;;;;;;5.30;1.98;;;;;;;12.27;100.00;97524.84;6170422;28;20051;-74
2023/11/05 12:00:20;;;;;;;3.88;1.40;;;;;;;12.38;100.00;97554.25;6171152;28;20417;-75
2023/11/05 12:03:23;;;;;;;2.70;1.27;;;;;;;12.27;100.00;97558.84;6170360;28;20105;-75
2023/11/05 12:06:25;;;;;;;2.15;1.15;;;;;;;12.30;100.00;97539.38;6171355;28;20453;-74
2023/11/05 12:09:27;;;;;;;4.25;2.50;;;;;;;12.11;100.00;97509.19;6171140;28;20057;-75
2023/11/05 12:12:29;;;;;;;2.20;1.65;;;;;;;12.05;100.00;97502.81;6171508;28;20050;-74
2023/11/05 12:15:30;;;;;;;2.38;1.08;;;;;;;12.09;100.00;97482.41;6169794;28;20062;-75
2023/11/05 12:18:31;;;;;;;2.70;1.20;;;;;;;12.19;100.00;97493.50;6186223;28;20050;-79
2023/11/05 12:21:32;;;;;;;9.75;1.50;;;;;;;12.14;100.00;97490.53;6170971;28;20082;-79
2023/11/05 12:24:33;;;;;;;3.03;1.30;;;;;;;12.23;100.00;97489.56;6170033;28;20054;-79
2023/11/05 12:27:34;;;;;;;1.42;1.02;;;;;;;12.21;100.00;97482.84;6170885;28;20054;-79
2023/11/05 12:30:35;;;;;;;6.68;0.80;;;;;;;12.15;100.00;97480.91;6171080;28;20046;-79
2023/11/05 12:33:38;;;;;;;1.38;1.00;;;;;;;12.08;100.00;97470.31;6172509;28;20138;-74
2023/11/05 12:36:43;;;;;;;1.55;0.88;;;;;;;12.10;100.00;97456.06;6174855;28;20062;-79
2023/11/05 12:39:43;;;;;;;8.65;2.75;;;;;;;12.13;100.00;97426.19;6175975;28;20043;-79
2023/11/05 12:42:45;;;;;;;3.05;1.55;;;;;;;11.97;100.00;97436.69;6176484;28;20138;-79
2023/11/05 12:45:52;;;;;;;3.33;1.25;;;;;;;12.08;100.00;97437.13;6187385;28;20062;-79
2023/11/05 12:48:53;;;;;;;3.60;2.28;;;;;;;12.01;100.00;97409.25;6199301;28;20108;-79
2023/11/05 12:51:54;;;;;;;5.70;2.13;;;;;;;12.10;100.00;97401.19;6200008;28;20058;-74
2023/11/05 12:54:55;;;;;;;3.20;1.80;;;;;;;12.12;100.00;97398.41;6199715;28;20098;-74
2023/11/05 12:57:57;;;;;;;5.45;1.90;;;;;;;12.15;100.00;97394.63;6198517;28;20065;-75
2023/11/05 13:01:00;;;;;;;4.47;2.63;;;;;;;12.18;100.00;97392.50;6199535;28;20169;-74
2023/11/05 13:04:00;;;;;;;4.38;2.17;;;;;;;12.27;100.00;97383.66;6196645;28;20520;-74
2023/11/05 13:07:06;;;;;;;3.67;1.67;;;;;;;12.15;100.00;97360.66;6163914;28;20082;-79
2023/11/05 13:10:08;;;;;;;2.67;1.88;;;;;;;12.30;100.00;97328.41;6174534;28;20067;-79
2023/11/05 13:13:09;;;;;;;3.17;2.40;;;;;;;12.30;100.00;97319.75;6167734;28;20050;-79
2023/11/05 13:16:10;;;;;;;3.17;2.35;;;;;;;12.37;100.00;97297.16;6168505;28;20055;-79
2023/11/05 13:19:12;;;;;;;3.10;1.70;;;;;;;12.47;100.00;97273.41;6159512;28;20082;-74
2023/11/05 13:22:15;;;;;;;4.63;1.80;;;;;;;12.61;100.00;97269.25;6167093;28;20510;-74
2023/11/05 13:25:16;;;;;;;2.53;1.60;;;;;;;12.79;100.00;97229.72;6172747;28;20083;-74
2023/11/05 13:28:19;;;;;;;5.30;3.13;;;;;;;12.68;100.00;97234.38;6168341;28;20055;-74
2023/11/05 13:31:20;;;;;;;3.38;1.75;;;;;;;12.81;100.00;97329.78;6165429;28;20101;-74
2023/11/05 13:34:21;;;;;;;4.95;2.00;;;;;;;12.84;100.00;97352.97;6155617;28;20051;-79
2023/11/05 13:37:22;;;;;;;3.58;2.10;;;;;;;12.73;100.00;97354.19;6158545;28;20051;-79
2023/11/05 13:40:26;;;;;;;6.38;2.30;;;;;;;12.52;100.00;97346.13;6181387;28;20051;-74
2023/11/05 13:43:29;;;;;;;3.58;1.90;;;;;;;12.50;100.00;97351.53;6168142;28;20567;-79
2023/11/05 13:46:32;;;;;;;4.63;2.75;;;;;;;12.40;100.00;97371.84;6169708;28;20063;-79
2023/11/05 13:49:36;;;;;;;1.77;1.63;;;;;;;12.36;100.00;97360.91;6156139;28;20050;-74
2023/11/05 13:52:37;;;;;;;2.10;1.80;;;;;;;12.67;100.00;97344.41;6169521;28;20062;-73
2023/11/05 13:55:38;;;;;;;4.47;1.67;;;;;;;12.80;100.00;97344.63;6174268;28;20054;-78
2023/11/05 13:58:39;;;;;;;2.08;1.60;;;;;;;12.88;100.00;97352.44;6163875;28;20051;-79
2023/11/05 14:01:40;;;;;;;2.45;2.00;;;;;;;12.88;100.00;97364.72;6155951;28;20047;-79
2023/11/05 14:04:43;;;;;;;5.05;2.60;;;;;;;12.92;100.00;97389.53;6155696;28;20051;-74